Almo, Kentucky
Current Conditions -  °F | °C
As of 6:15 AM on Thursday 29 Jan 2015 (Local Time) from KCEY Reporting Station
Clear Clear  
Wind Chill: 44°   Ceiling: Unl
Heat Index: 48°   Visibility: 10mi
Dew Point: 36°   Wind: 10mph
Humidity: 62%   Direction: 190°S
Pressure: 29.93"   Gusts: 17mph
Location:  36.69°N, 88.28°W
Report Text: KCEY 291215Z AUTO 19009G15KT 160V220 10SM CLR 09/02 A2993 RMK AO1
Loading
Personal Weather Stations






























Interactive Weather Map New forecast layout! Learn more

10-Day Weather Forecast

Advertisements
Track Severe Weather on mobile